createdAt,value
2022-10-17T00:01:48.382Z,101283.00
2022-10-17T00:04:14.885Z,101286.00
2022-10-17T00:06:41.519Z,101295.00
2022-10-17T00:09:08.117Z,101294.00
2022-10-17T00:11:34.549Z,101294.00
2022-10-17T00:14:01.009Z,101282.00
2022-10-17T00:16:28.885Z,101297.00
2022-10-17T00:18:55.436Z,101297.00
2022-10-17T00:21:22.815Z,101295.00
2022-10-17T00:23:49.296Z,101302.00
2022-10-17T00:26:16.274Z,101298.00
2022-10-17T00:28:43.010Z,101305.00
2022-10-17T00:31:09.538Z,101319.00
2022-10-17T00:33:36.278Z,101307.00
2022-10-17T00:36:10.154Z,101306.00
2022-10-17T00:38:38.591Z,101304.00
2022-10-17T00:41:05.419Z,101307.00
2022-10-17T00:43:48.806Z,101309.00
2022-10-17T00:46:15.265Z,101313.00
2022-10-17T00:48:41.889Z,101306.00
2022-10-17T00:51:08.462Z,101301.00
2022-10-17T00:53:35.583Z,101298.00
2022-10-17T00:56:02.066Z,101305.00
2022-10-17T00:58:28.625Z,101304.00
2022-10-17T01:00:55.093Z,101309.00
2022-10-17T01:03:21.560Z,101306.00
2022-10-17T01:05:48.049Z,101301.00
2022-10-17T01:08:14.561Z,101301.00
2022-10-17T01:11:10.195Z,101297.00
2022-10-17T01:13:42.355Z,101300.00
2022-10-17T01:16:11.607Z,101298.00
2022-10-17T01:18:40.754Z,101287.00
2022-10-17T01:21:07.131Z,101292.00
2022-10-17T01:23:52.187Z,101293.00
2022-10-17T01:26:24.628Z,101291.00
2022-10-17T01:29:09.893Z,101286.00
2022-10-17T01:32:05.727Z,101306.00
2022-10-17T01:34:32.191Z,101306.00
2022-10-17T01:37:02.019Z,101310.00
2022-10-17T01:39:49.365Z,101310.00
2022-10-17T01:42:15.772Z,101310.00
2022-10-17T01:45:02.448Z,101313.00
2022-10-17T01:47:30.738Z,101309.00
2022-10-17T01:50:03.190Z,101316.00
2022-10-17T01:52:33.645Z,101313.00
2022-10-17T01:55:06.195Z,101319.00
2022-10-17T01:57:40.856Z,101315.00
2022-10-17T02:00:10.030Z,101311.00
2022-10-17T02:02:36.772Z,101306.00
2022-10-17T02:05:03.610Z,101302.00
2022-10-17T02:07:30.444Z,101306.00
2022-10-17T02:09:57.103Z,101309.00
2022-10-17T02:12:44.060Z,101306.00
2022-10-17T02:15:13.385Z,101310.00
2022-10-17T02:18:01.338Z,101305.00
2022-10-17T02:20:27.767Z,101304.00
2022-10-17T02:22:57.416Z,101303.00
2022-10-17T02:25:29.671Z,101309.00
2022-10-17T02:28:08.298Z,101311.00
2022-10-17T02:30:51.912Z,101319.00
2022-10-17T02:33:25.410Z,101325.00
2022-10-17T02:35:57.356Z,101329.00
2022-10-17T02:38:24.803Z,101319.00
2022-10-17T02:40:53.025Z,101314.00
2022-10-17T02:43:19.856Z,101315.00
2022-10-17T02:45:46.696Z,101329.00
2022-10-17T02:48:25.377Z,101329.00
2022-10-17T02:51:01.473Z,101342.00
2022-10-17T02:53:35.627Z,101350.00
2022-10-17T02:56:05.082Z,101352.00
2022-10-17T02:58:33.327Z,101358.00
2022-10-17T03:01:00.516Z,101361.00
2022-10-17T03:03:28.890Z,101356.00
2022-10-17T03:05:55.448Z,101344.00
2022-10-17T03:08:22.565Z,101346.00
2022-10-17T03:10:49.377Z,101355.00
2022-10-17T03:13:16.446Z,101355.00
2022-10-17T03:15:42.902Z,101357.00
2022-10-17T03:18:09.686Z,101351.00
2022-10-17T03:20:36.306Z,101345.00
2022-10-17T03:23:02.765Z,101345.00
2022-10-17T03:25:29.360Z,101347.00
2022-10-17T03:27:57.732Z,101349.00
2022-10-17T03:30:24.166Z,101357.00
2022-10-17T03:32:50.549Z,101357.00
2022-10-17T03:35:16.994Z,101357.00
2022-10-17T03:37:43.518Z,101345.00
2022-10-17T03:40:10.134Z,101352.00
2022-10-17T03:42:36.564Z,101367.00
2022-10-17T03:45:03.634Z,101360.00
2022-10-17T03:47:30.405Z,101370.00
2022-10-17T03:49:57.159Z,101360.00
2022-10-17T03:52:23.596Z,101360.00
2022-10-17T03:54:50.948Z,101360.00
2022-10-17T03:57:17.864Z,101358.00
2022-10-17T03:59:44.326Z,101358.00
2022-10-17T04:02:10.710Z,101363.00
2022-10-17T04:04:37.132Z,101360.00
2022-10-17T04:07:03.562Z,101363.00
2022-10-17T04:09:30.001Z,101371.00
2022-10-17T04:11:56.403Z,101378.00
2022-10-17T04:14:22.827Z,101393.00
2022-10-17T04:16:49.257Z,101399.00
2022-10-17T04:19:15.756Z,101418.00
2022-10-17T04:21:42.205Z,101412.00
2022-10-17T04:24:10.366Z,101410.00
2022-10-17T04:26:36.836Z,101416.00
2022-10-17T04:29:03.296Z,101421.00
2022-10-17T04:31:29.696Z,101417.00
2022-10-17T04:33:56.092Z,101420.00
2022-10-17T04:36:23.390Z,101427.00
2022-10-17T04:38:49.845Z,101421.00
2022-10-17T04:41:17.563Z,101428.00
2022-10-17T04:43:46.919Z,101428.00
2022-10-17T04:46:16.767Z,101430.00
2022-10-17T04:48:43.147Z,101445.00
2022-10-17T04:51:14.196Z,101444.00
2022-10-17T04:53:41.556Z,101449.00
2022-10-17T04:56:18.766Z,101447.00
2022-10-17T04:58:45.576Z,101427.00
2022-10-17T05:01:13.598Z,101438.00
2022-10-17T05:03:40.240Z,101434.00
2022-10-17T05:06:07.694Z,101416.00
2022-10-17T05:08:34.425Z,101417.00
2022-10-17T05:11:00.951Z,101416.00
2022-10-17T05:13:27.456Z,101416.00
2022-10-17T05:15:54.065Z,101423.00
2022-10-17T05:18:20.531Z,101422.00
2022-10-17T05:20:46.999Z,101422.00
2022-10-17T05:23:13.378Z,101428.00
2022-10-17T05:25:39.780Z,101430.00
2022-10-17T05:28:06.212Z,101429.00
2022-10-17T05:30:35.281Z,101421.00
2022-10-17T05:33:04.075Z,101424.00
2022-10-17T05:35:30.664Z,101432.00
2022-10-17T05:37:58.274Z,101436.00
2022-10-17T05:40:24.687Z,101435.00
2022-10-17T05:42:51.090Z,101436.00
2022-10-17T05:45:17.574Z,101451.00
2022-10-17T05:47:44.033Z,101456.00
2022-10-17T05:50:10.713Z,101470.00
2022-10-17T05:52:37.266Z,101491.00
2022-10-17T05:55:04.585Z,101495.00
2022-10-17T05:57:31.064Z,101521.00
2022-10-17T05:59:57.482Z,101550.00
2022-10-17T06:02:24.042Z,101553.00
2022-10-17T06:04:50.629Z,101551.00
2022-10-17T06:07:17.064Z,101549.00
2022-10-17T06:09:43.810Z,101549.00
2022-10-17T06:12:10.265Z,101535.00
2022-10-17T06:14:36.705Z,101537.00
2022-10-17T06:17:03.196Z,101553.00
2022-10-17T06:19:29.702Z,101565.00
2022-10-17T06:21:56.119Z,101581.00
2022-10-17T06:24:22.660Z,101593.00
2022-10-17T06:26:49.975Z,101593.00
2022-10-17T06:29:16.553Z,101593.00
2022-10-17T06:31:42.991Z,101589.00
2022-10-17T06:34:09.434Z,101581.00
2022-10-17T06:36:35.875Z,101559.00
2022-10-17T06:39:02.442Z,101569.00
2022-10-17T06:41:28.896Z,101581.00
2022-10-17T06:43:55.356Z,101592.00
2022-10-17T06:46:21.835Z,101600.00
2022-10-17T06:48:48.259Z,101597.00
2022-10-17T06:51:14.702Z,101598.00
2022-10-17T06:53:41.155Z,101613.00
2022-10-17T06:56:08.358Z,101595.00
2022-10-17T06:58:35.827Z,101594.00
2022-10-17T07:01:03.384Z,101600.00
2022-10-17T07:03:30.085Z,101604.00
2022-10-17T07:05:56.992Z,101592.00
2022-10-17T07:08:23.454Z,101604.00
2022-10-17T07:10:50.213Z,101612.00
2022-10-17T07:13:16.968Z,101615.00
2022-10-17T07:15:43.471Z,101609.00
2022-10-17T07:18:09.889Z,101614.00
2022-10-17T07:20:36.371Z,101621.00
2022-10-17T07:23:03.093Z,101614.00
2022-10-17T07:25:29.851Z,101593.00
2022-10-17T07:27:56.692Z,101599.00
2022-10-17T07:30:23.154Z,101620.00
2022-10-17T07:32:49.601Z,101627.00
2022-10-17T07:35:16.109Z,101623.00
2022-10-17T07:37:42.553Z,101621.00
2022-10-17T07:40:09.218Z,101633.00
2022-10-17T07:45:06.329Z,101637.00
2022-10-17T07:47:35.647Z,101645.00
2022-10-17T07:50:02.707Z,101652.00
2022-10-17T07:52:29.501Z,101682.00
2022-10-17T07:54:56.121Z,101697.00
2022-10-17T07:57:22.612Z,101702.00
2022-10-17T07:59:50.778Z,101696.00
2022-10-17T08:02:25.891Z,101695.00
2022-10-17T08:04:52.440Z,101714.00
2022-10-17T08:07:23.233Z,101702.00
2022-10-17T08:09:53.559Z,101707.00
2022-10-17T08:12:20.070Z,101721.00
2022-10-17T08:14:46.665Z,101722.00
2022-10-17T08:17:13.077Z,101729.00
2022-10-17T08:19:40.348Z,101738.00
2022-10-17T08:22:07.289Z,101727.00
2022-10-17T08:24:33.936Z,101733.00
2022-10-17T08:27:00.875Z,101736.00
2022-10-17T08:29:27.705Z,101744.00
2022-10-17T08:31:58.606Z,101766.00
2022-10-17T08:34:28.045Z,101765.00
2022-10-17T08:36:54.517Z,101776.00
2022-10-17T08:39:21.069Z,101775.00
2022-10-17T08:41:56.444Z,101785.00
2022-10-17T08:44:32.050Z,101788.00
2022-10-17T08:46:59.429Z,101794.00
2022-10-17T08:49:38.367Z,101790.00
2022-10-17T08:52:11.299Z,101789.00
2022-10-17T08:54:42.088Z,101806.00
2022-10-17T08:57:13.011Z,101797.00
2022-10-17T08:59:39.521Z,101800.00
2022-10-17T09:02:21.073Z,101800.00
2022-10-17T09:04:50.615Z,101792.00
2022-10-17T09:07:24.261Z,101795.00
2022-10-17T09:09:50.669Z,101787.00
2022-10-17T09:12:17.063Z,101790.00
2022-10-17T09:14:53.941Z,101793.00
2022-10-17T09:17:35.737Z,101785.00
2022-10-17T09:20:11.224Z,101780.00
2022-10-17T09:22:47.715Z,101778.00
2022-10-17T09:25:17.081Z,101773.00
2022-10-17T09:27:47.147Z,101753.00
2022-10-17T09:30:44.690Z,101751.00
2022-10-17T09:33:23.269Z,101763.00
2022-10-17T09:36:00.394Z,101755.00
2022-10-17T09:38:30.129Z,101770.00
2022-10-17T09:40:59.097Z,101798.00
2022-10-17T09:43:26.610Z,101812.00
2022-10-17T09:46:22.435Z,101823.00
2022-10-17T09:48:53.254Z,101826.00
2022-10-17T09:51:25.700Z,101833.00
2022-10-17T09:53:56.578Z,101828.00
2022-10-17T09:56:24.036Z,101835.00
2022-10-17T09:58:54.416Z,101841.00
2022-10-17T10:01:24.940Z,101847.00
2022-10-17T10:04:09.899Z,101847.00
2022-10-17T10:06:36.702Z,101840.00
2022-10-17T10:09:05.222Z,101847.00
2022-10-17T10:11:43.711Z,101847.00
2022-10-17T10:14:19.552Z,101848.00
2022-10-17T10:16:46.987Z,101862.00
2022-10-17T10:19:33.147Z,101861.00
2022-10-17T10:22:04.198Z,101865.00
2022-10-17T10:24:31.350Z,101865.00
2022-10-17T10:26:59.293Z,101872.00
2022-10-17T10:29:25.726Z,101874.00
2022-10-17T10:31:53.398Z,101883.00
2022-10-17T10:34:20.397Z,101895.00
2022-10-17T10:37:07.268Z,101894.00
2022-10-17T10:39:37.126Z,101894.00
2022-10-17T10:42:05.967Z,101900.00
2022-10-17T10:44:33.255Z,101911.00
2022-10-17T10:47:06.978Z,101927.00
2022-10-17T10:49:33.408Z,101926.00
2022-10-17T10:52:00.494Z,101931.00
2022-10-17T10:54:33.915Z,101938.00
2022-10-17T10:57:03.478Z,101942.00
2022-10-17T10:59:36.049Z,101949.00
2022-10-17T11:02:10.267Z,101948.00
2022-10-17T11:04:36.693Z,101951.00
2022-10-17T11:07:15.054Z,101960.00
2022-10-17T11:09:50.587Z,101968.00
2022-10-17T11:12:34.072Z,101967.00
2022-10-17T11:15:03.776Z,101977.00
2022-10-17T11:17:33.324Z,101985.00
2022-10-17T11:20:04.204Z,101985.00
2022-10-17T11:22:32.778Z,101983.00
2022-10-17T11:25:03.780Z,101988.00
2022-10-17T11:27:30.849Z,101999.00
2022-10-17T11:29:58.201Z,102002.00
2022-10-17T11:32:39.884Z,102005.00
2022-10-17T11:35:44.958Z,102009.00
2022-10-17T11:38:16.720Z,102015.00
2022-10-17T11:40:45.688Z,102016.00
2022-10-17T11:43:26.041Z,102022.00
2022-10-17T11:45:56.270Z,102026.00
2022-10-17T11:48:29.569Z,102021.00
2022-10-17T11:54:06.600Z,102023.00
2022-10-17T11:56:48.292Z,102023.00
2022-10-17T11:59:23.917Z,102026.00
2022-10-17T12:01:57.601Z,102023.00
2022-10-17T12:04:49.658Z,102020.00
2022-10-17T12:07:24.677Z,102020.00
2022-10-17T12:10:06.937Z,102020.00
2022-10-17T12:12:34.588Z,102024.00
2022-10-17T12:15:24.156Z,102027.00
2022-10-17T12:17:56.804Z,102029.00
2022-10-17T12:20:26.284Z,102028.00
2022-10-17T12:23:10.785Z,102024.00
2022-10-17T12:25:47.929Z,102036.00
2022-10-17T12:28:37.524Z,102039.00
2022-10-17T12:31:34.126Z,102041.00
2022-10-17T12:34:02.124Z,102038.00
2022-10-17T12:36:28.599Z,102038.00
2022-10-17T12:39:01.169Z,102038.00
2022-10-17T12:41:40.074Z,102043.00
2022-10-17T12:44:12.668Z,102057.00
2022-10-17T12:46:58.870Z,102062.00
2022-10-17T12:49:37.291Z,102056.00
2022-10-17T12:52:16.066Z,102051.00
2022-10-17T12:55:00.610Z,102063.00
2022-10-17T12:57:43.339Z,102063.00
2022-10-17T13:00:15.917Z,102062.00
2022-10-17T13:02:42.713Z,102065.00
2022-10-17T13:05:14.456Z,102053.00
2022-10-17T13:07:42.564Z,102064.00
2022-10-17T13:10:18.840Z,102070.00
2022-10-17T13:12:45.353Z,102070.00
2022-10-17T13:15:16.058Z,102073.00
2022-10-17T13:17:43.822Z,102079.00
2022-10-17T13:20:27.506Z,102078.00
2022-10-17T13:22:57.368Z,102089.00
2022-10-17T13:25:24.810Z,102092.00
2022-10-17T13:27:53.808Z,102087.00
2022-10-17T13:30:29.350Z,102086.00
2022-10-17T13:32:58.613Z,102093.00
2022-10-17T13:38:21.205Z,102098.00
2022-10-17T13:40:50.316Z,102098.00
2022-10-17T13:43:19.262Z,102107.00
2022-10-17T13:45:50.443Z,102107.00
2022-10-17T13:48:21.884Z,102118.00
2022-10-17T13:50:50.415Z,102102.00
2022-10-17T13:53:29.964Z,102115.00
2022-10-17T13:56:22.903Z,102116.00
2022-10-17T13:58:49.755Z,102111.00
2022-10-17T14:01:16.313Z,102119.00
2022-10-17T14:03:48.492Z,102117.00
2022-10-17T14:06:23.288Z,102125.00
2022-10-17T14:09:02.673Z,102115.00
2022-10-17T14:11:33.680Z,102120.00
2022-10-17T14:14:01.186Z,102121.00
2022-10-17T14:16:34.534Z,102132.00
2022-10-17T14:19:00.969Z,102132.00
2022-10-17T14:21:42.909Z,102138.00
2022-10-17T14:24:15.108Z,102140.00
2022-10-17T14:26:51.683Z,102136.00
2022-10-17T14:29:25.417Z,102136.00
2022-10-17T14:31:58.267Z,102142.00
2022-10-17T14:34:27.848Z,102143.00
2022-10-17T14:36:54.711Z,102153.00
2022-10-17T14:39:23.169Z,102143.00
2022-10-17T14:41:49.789Z,102154.00
2022-10-17T14:44:21.963Z,102147.00
2022-10-17T14:46:51.311Z,102156.00
2022-10-17T14:49:24.556Z,102150.00
2022-10-17T14:52:13.391Z,102156.00
2022-10-17T14:54:44.444Z,102161.00
2022-10-17T14:57:18.319Z,102167.00
2022-10-17T15:00:00.187Z,102161.00
2022-10-17T15:02:28.242Z,102167.00
2022-10-17T15:04:55.230Z,102174.00
2022-10-17T15:07:22.174Z,102172.00
2022-10-17T15:09:49.599Z,102183.00
2022-10-17T15:12:20.598Z,102186.00
2022-10-17T15:14:50.736Z,102199.00
2022-10-17T15:17:24.266Z,102198.00
2022-10-17T15:19:50.913Z,102202.00
2022-10-17T15:22:18.306Z,102202.00
2022-10-17T15:24:47.655Z,102214.00
2022-10-17T15:27:15.730Z,102208.00
2022-10-17T15:29:42.147Z,102209.00
2022-10-17T15:32:08.637Z,102216.00
2022-10-17T15:34:35.077Z,102212.00
2022-10-17T15:37:01.469Z,102216.00
2022-10-17T15:39:27.916Z,102219.00
2022-10-17T15:41:54.326Z,102223.00
2022-10-17T15:44:20.846Z,102218.00
2022-10-17T15:46:47.315Z,102222.00
2022-10-17T15:49:14.591Z,102234.00
2022-10-17T15:51:41.393Z,102232.00
2022-10-17T15:54:08.004Z,102233.00
2022-10-17T15:56:36.379Z,102232.00
2022-10-17T15:59:04.522Z,102229.00
2022-10-17T16:01:31.532Z,102240.00
2022-10-17T16:03:58.072Z,102239.00
2022-10-17T16:06:24.644Z,102247.00
2022-10-17T16:08:51.391Z,102242.00
2022-10-17T16:11:18.039Z,102246.00
2022-10-17T16:13:47.436Z,102243.00
2022-10-17T16:16:13.899Z,102238.00
2022-10-17T16:18:40.769Z,102239.00
2022-10-17T16:21:09.334Z,102243.00
2022-10-17T16:23:35.820Z,102245.00
2022-10-17T16:26:02.288Z,102248.00
2022-10-17T16:28:28.782Z,102242.00
2022-10-17T16:30:55.304Z,102241.00
2022-10-17T16:33:21.760Z,102240.00
2022-10-17T16:35:49.426Z,102244.00
2022-10-17T16:38:16.115Z,102244.00
2022-10-17T16:40:42.587Z,102242.00
2022-10-17T16:43:12.561Z,102249.00
2022-10-17T16:45:39.215Z,102252.00
2022-10-17T16:48:05.942Z,102252.00
2022-10-17T16:50:35.483Z,102255.00
2022-10-17T16:53:03.307Z,102259.00
2022-10-17T16:55:29.773Z,102263.00
2022-10-17T16:57:56.232Z,102266.00
2022-10-17T17:00:22.766Z,102265.00
2022-10-17T17:02:49.284Z,102268.00
2022-10-17T17:05:15.944Z,102267.00
2022-10-17T17:07:42.401Z,102276.00
2022-10-17T17:10:08.952Z,102271.00
2022-10-17T17:12:35.801Z,102277.00
2022-10-17T17:15:02.519Z,102284.00
2022-10-17T17:17:37.335Z,102287.00
2022-10-17T17:20:14.765Z,102288.00
2022-10-17T17:22:41.253Z,102286.00
2022-10-17T17:25:07.896Z,102281.00
2022-10-17T17:27:34.372Z,102284.00
2022-10-17T17:30:00.817Z,102290.00
2022-10-17T17:32:27.241Z,102290.00
2022-10-17T17:34:54.490Z,102299.00
2022-10-17T17:37:20.970Z,102301.00
2022-10-17T17:39:47.423Z,102309.00
2022-10-17T17:42:13.816Z,102305.00
2022-10-17T17:44:40.365Z,102307.00
2022-10-17T17:47:06.828Z,102303.00
2022-10-17T17:49:33.257Z,102302.00
2022-10-17T17:52:00.007Z,102304.00
2022-10-17T17:54:26.485Z,102312.00
2022-10-17T17:56:53.024Z,102315.00
2022-10-17T17:59:19.566Z,102312.00
2022-10-17T18:01:46.164Z,102319.00
2022-10-17T18:04:13.040Z,102321.00
2022-10-17T18:06:39.657Z,102332.00
2022-10-17T18:09:06.927Z,102325.00
2022-10-17T18:11:33.571Z,102332.00
2022-10-17T18:14:02.428Z,102323.00
2022-10-17T18:16:29.594Z,102338.00
2022-10-17T18:18:56.607Z,102340.00
2022-10-17T18:21:23.152Z,102345.00
2022-10-17T18:23:50.062Z,102342.00
2022-10-17T18:26:16.514Z,102351.00
2022-10-17T18:28:43.540Z,102361.00
2022-10-17T18:31:11.475Z,102363.00
2022-10-17T18:33:38.436Z,102352.00
2022-10-17T18:36:07.127Z,102358.00
2022-10-17T18:38:33.971Z,102359.00
2022-10-17T18:41:07.357Z,102365.00
2022-10-17T18:43:34.867Z,102366.00
2022-10-17T18:46:03.873Z,102369.00
2022-10-17T18:48:30.614Z,102365.00
2022-10-17T18:50:57.111Z,102361.00
2022-10-17T18:53:23.596Z,102366.00
2022-10-17T18:55:53.244Z,102364.00
2022-10-17T18:58:21.324Z,102377.00
2022-10-17T19:00:48.354Z,102377.00
2022-10-17T19:03:15.006Z,102386.00
2022-10-17T19:05:42.019Z,102381.00
2022-10-17T19:08:08.503Z,102387.00
2022-10-17T19:10:35.241Z,102381.00
2022-10-17T19:13:01.698Z,102387.00
2022-10-17T19:15:28.096Z,102395.00
2022-10-17T19:17:54.547Z,102407.00
2022-10-17T19:20:20.956Z,102411.00
2022-10-17T19:22:47.393Z,102410.00
2022-10-17T19:25:13.869Z,102414.00
2022-10-17T19:27:40.327Z,102410.00
2022-10-17T19:30:07.073Z,102418.00
2022-10-17T19:32:33.941Z,102415.00
2022-10-17T19:35:00.685Z,102425.00
2022-10-17T19:37:27.252Z,102424.00
2022-10-17T19:39:53.765Z,102421.00
2022-10-17T19:42:20.195Z,102418.00
2022-10-17T19:44:46.629Z,102415.00
2022-10-17T19:47:13.262Z,102411.00
2022-10-17T19:49:39.749Z,102408.00
2022-10-17T19:52:06.170Z,102413.00
2022-10-17T19:54:32.619Z,102420.00
2022-10-17T19:56:59.107Z,102407.00
2022-10-17T19:59:26.610Z,102422.00
2022-10-17T20:01:53.059Z,102421.00
2022-10-17T20:04:19.525Z,102430.00
2022-10-17T20:06:45.953Z,102439.00
2022-10-17T20:09:15.880Z,102429.00
2022-10-17T20:11:43.843Z,102436.00
2022-10-17T20:14:10.335Z,102436.00
2022-10-17T20:16:36.805Z,102436.00
2022-10-17T20:19:08.760Z,102428.00
2022-10-17T20:21:36.670Z,102440.00
2022-10-17T20:24:04.551Z,102439.00
2022-10-17T20:26:38.181Z,102444.00
2022-10-17T20:29:08.824Z,102450.00
2022-10-17T20:31:35.525Z,102442.00
2022-10-17T20:34:01.945Z,102452.00
2022-10-17T20:36:28.443Z,102453.00
2022-10-17T20:38:56.148Z,102452.00
2022-10-17T20:41:23.026Z,102449.00
2022-10-17T20:43:53.255Z,102447.00
2022-10-17T20:46:36.452Z,102461.00
2022-10-17T20:49:04.601Z,102470.00
2022-10-17T20:51:31.028Z,102470.00
2022-10-17T20:56:30.098Z,102475.00
2022-10-17T20:58:57.932Z,102482.00
2022-10-17T21:01:25.306Z,102480.00
2022-10-17T21:03:51.907Z,102478.00
2022-10-17T21:06:18.694Z,102488.00
2022-10-17T21:08:51.418Z,102482.00
2022-10-17T21:11:18.934Z,102478.00
2022-10-17T21:13:45.950Z,102481.00
2022-10-17T21:16:14.629Z,102489.00
2022-10-17T21:18:41.411Z,102491.00
2022-10-17T21:21:15.553Z,102491.00
2022-10-17T21:23:43.026Z,102489.00
2022-10-17T21:26:10.315Z,102498.00
2022-10-17T21:28:37.444Z,102503.00
2022-10-17T21:31:17.705Z,102501.00
2022-10-17T21:33:45.985Z,102493.00
2022-10-17T21:36:13.731Z,102495.00
2022-10-17T21:38:40.446Z,102491.00
2022-10-17T21:41:07.668Z,102485.00
2022-10-17T21:43:34.639Z,102490.00
2022-10-17T21:46:02.067Z,102485.00
2022-10-17T21:48:28.640Z,102490.00
2022-10-17T21:50:59.610Z,102497.00
2022-10-17T21:53:26.196Z,102498.00
2022-10-17T21:55:52.629Z,102492.00
2022-10-17T21:58:20.007Z,102495.00
2022-10-17T22:00:46.500Z,102491.00
2022-10-17T22:03:15.123Z,102498.00
2022-10-17T22:05:41.543Z,102490.00
2022-10-17T22:08:08.005Z,102492.00
2022-10-17T22:10:36.554Z,102493.00
2022-10-17T22:13:03.225Z,102490.00
2022-10-17T22:15:30.123Z,102499.00
2022-10-17T22:17:56.611Z,102487.00
2022-10-17T22:20:23.247Z,102496.00
2022-10-17T22:22:49.663Z,102492.00
2022-10-17T22:25:16.170Z,102495.00
2022-10-17T22:27:42.627Z,102496.00
2022-10-17T22:30:09.359Z,102502.00
2022-10-17T22:32:35.755Z,102504.00
2022-10-17T22:35:02.154Z,102518.00
2022-10-17T22:37:28.857Z,102519.00
2022-10-17T22:39:55.485Z,102526.00
2022-10-17T22:44:53.230Z,102520.00
2022-10-17T22:47:19.662Z,102525.00
2022-10-17T22:49:46.042Z,102525.00
2022-10-17T22:52:12.467Z,102522.00
2022-10-17T22:54:38.849Z,102520.00
2022-10-17T22:57:05.254Z,102515.00
2022-10-17T22:59:31.706Z,102520.00
2022-10-17T23:01:58.195Z,102522.00
2022-10-17T23:04:24.730Z,102521.00
2022-10-17T23:06:51.135Z,102527.00
2022-10-17T23:09:17.692Z,102524.00
2022-10-17T23:11:44.280Z,102511.00
2022-10-17T23:14:10.702Z,102498.00
2022-10-17T23:16:37.102Z,102504.00
2022-10-17T23:19:03.541Z,102510.00
2022-10-17T23:21:29.985Z,102510.00
2022-10-17T23:23:56.450Z,102514.00
2022-10-17T23:26:22.846Z,102505.00
2022-10-17T23:28:53.695Z,102507.00
2022-10-17T23:31:21.092Z,102508.00
2022-10-17T23:33:48.251Z,102510.00
2022-10-17T23:36:15.519Z,102512.00
2022-10-17T23:38:42.839Z,102510.00
2022-10-17T23:41:09.343Z,102520.00
2022-10-17T23:43:36.098Z,102520.00
2022-10-17T23:46:02.905Z,102513.00
2022-10-17T23:48:29.427Z,102526.00
2022-10-17T23:50:56.118Z,102526.00
2022-10-17T23:53:26.089Z,102530.00
2022-10-17T23:55:52.570Z,102527.00
2022-10-17T23:58:19.009Z,102534.00
